createdAt,value
2018-02-10T00:01:57.659Z,29.40
2018-02-10T00:04:25.397Z,27.60
2018-02-10T00:06:53.157Z,26.97
2018-02-10T00:09:21.785Z,28.23
2018-02-10T00:11:49.952Z,28.83
2018-02-10T00:14:17.706Z,26.60
2018-02-10T00:16:45.670Z,26.33
2018-02-10T00:19:13.372Z,26.03
2018-02-10T00:21:42.116Z,25.47
2018-02-10T00:24:10.095Z,27.27
2018-02-10T00:26:37.919Z,25.50
2018-02-10T00:29:05.673Z,26.97
2018-02-10T00:31:33.696Z,28.30
2018-02-10T00:34:01.714Z,28.03
2018-02-10T00:36:30.420Z,27.20
2018-02-10T00:38:58.352Z,26.63
2018-02-10T00:41:26.149Z,26.00
2018-02-10T00:43:54.106Z,26.73
2018-02-10T00:46:21.985Z,29.30
2018-02-10T00:48:49.751Z,26.10
2018-02-10T00:51:18.397Z,25.70
2018-02-10T00:53:46.340Z,26.40
2018-02-10T00:56:14.830Z,26.80
2018-02-10T00:58:43.335Z,27.13
2018-02-10T01:01:11.087Z,28.17
2018-02-10T01:03:38.943Z,27.50
2018-02-10T01:06:06.858Z,26.33
2018-02-10T01:08:34.633Z,28.47
2018-02-10T01:11:02.717Z,28.10
2018-02-10T01:13:31.487Z,29.93
2018-02-10T01:15:59.414Z,28.10
2018-02-10T01:18:27.282Z,28.37
2018-02-10T01:20:55.557Z,26.50
2018-02-10T01:23:23.298Z,26.50
2018-02-10T01:25:51.837Z,27.60
2018-02-10T01:28:20.594Z,26.80
2018-02-10T01:30:48.353Z,26.03
2018-02-10T01:33:16.296Z,27.87
2018-02-10T01:35:44.107Z,26.40
2018-02-10T01:38:11.839Z,24.97
2018-02-10T01:40:39.588Z,28.57
2018-02-10T01:43:08.253Z,26.80
2018-02-10T01:45:36.781Z,27.23
2018-02-10T01:48:04.647Z,25.57
2018-02-10T01:50:32.735Z,26.67
2018-02-10T01:53:00.495Z,27.20
2018-02-10T01:55:28.365Z,28.10
2018-02-10T01:57:56.234Z,28.07
2018-02-10T02:00:24.179Z,25.67
2018-02-10T02:02:51.969Z,26.77
2018-02-10T02:05:19.825Z,28.40
2018-02-10T02:07:47.694Z,27.30
2018-02-10T02:10:15.668Z,28.17
2018-02-10T02:12:43.535Z,27.60
2018-02-10T02:15:11.405Z,26.83
2018-02-10T02:17:39.963Z,25.90
2018-02-10T02:20:07.763Z,26.53
2018-02-10T02:22:36.019Z,27.40
2018-02-10T02:25:03.882Z,29.80
2018-02-10T02:27:31.939Z,26.27
2018-02-10T02:29:59.723Z,28.67
2018-02-10T02:32:27.497Z,26.53
2018-02-10T02:34:55.350Z,29.40
2018-02-10T02:37:23.200Z,27.23
2018-02-10T02:39:51.170Z,25.43
2018-02-10T02:42:18.964Z,27.67
2018-02-10T02:44:46.848Z,28.93
2018-02-10T02:47:15.483Z,28.03
2018-02-10T02:49:43.375Z,25.40
2018-02-10T02:52:11.238Z,27.80
2018-02-10T02:54:39.087Z,27.97
2018-02-10T02:57:06.949Z,27.33
2018-02-10T02:59:34.818Z,28.07
2018-02-10T03:02:03.911Z,26.43
2018-02-10T03:04:31.733Z,27.10
2018-02-10T03:07:00.284Z,28.00
2018-02-10T03:09:28.121Z,25.73
2018-02-10T03:11:55.864Z,23.53
2018-02-10T03:14:23.857Z,25.23
2018-02-10T03:16:52.578Z,23.90
2018-02-10T03:19:20.325Z,23.90
2018-02-10T03:21:49.144Z,24.77
2018-02-10T03:24:17.681Z,23.80
2018-02-10T03:26:45.426Z,25.63
2018-02-10T03:29:13.328Z,27.00
2018-02-10T03:31:41.064Z,25.13
2018-02-10T03:34:08.836Z,26.27
2018-02-10T03:36:36.618Z,25.60
2018-02-10T03:39:04.453Z,27.97
2018-02-10T03:41:32.466Z,27.70
2018-02-10T03:44:00.508Z,25.87
2018-02-10T03:46:28.270Z,26.57
2018-02-10T03:48:56.133Z,28.90
2018-02-10T03:51:24.562Z,27.10
2018-02-10T03:53:53.612Z,27.00
2018-02-10T03:56:22.012Z,27.20
2018-02-10T03:58:49.942Z,27.90
2018-02-10T04:01:17.844Z,27.37
2018-02-10T04:03:45.605Z,28.80
2018-02-10T04:06:13.574Z,27.87
2018-02-10T04:08:41.333Z,27.23
2018-02-10T04:11:09.206Z,27.23
2018-02-10T04:13:37.071Z,28.60
2018-02-10T04:16:04.973Z,26.00
2018-02-10T04:18:32.912Z,26.53
2018-02-10T04:21:00.699Z,28.27
2018-02-10T04:23:29.216Z,26.70
2018-02-10T04:25:57.119Z,28.00
2018-02-10T04:28:24.910Z,27.73
2018-02-10T04:30:53.430Z,27.40
2018-02-10T04:33:21.230Z,26.03
2018-02-10T04:35:48.977Z,25.43
2018-02-10T04:38:16.706Z,25.90
2018-02-10T04:40:44.632Z,27.40
2018-02-10T04:43:12.626Z,24.40
2018-02-10T04:45:41.177Z,26.07
2018-02-10T04:48:09.031Z,26.27
2018-02-10T04:50:37.016Z,25.60
2018-02-10T04:53:04.961Z,25.47
2018-02-10T04:55:33.058Z,25.83
2018-02-10T04:58:01.920Z,22.40
2018-02-10T05:00:29.714Z,25.90
2018-02-10T05:02:57.451Z,25.00
2018-02-10T05:05:25.198Z,24.97
2018-02-10T05:07:53.054Z,25.67
2018-02-10T05:10:20.938Z,25.13
2018-02-10T05:12:48.725Z,25.33
2018-02-10T05:15:16.490Z,26.10
2018-02-10T05:17:44.224Z,25.63
2018-02-10T05:20:11.949Z,23.23
2018-02-10T05:22:40.627Z,25.33
2018-02-10T05:25:08.484Z,26.33
2018-02-10T05:27:37.734Z,25.47
2018-02-10T05:30:05.685Z,25.70
2018-02-10T05:32:34.193Z,25.70
2018-02-10T05:35:02.480Z,25.50
2018-02-10T05:37:30.364Z,24.33
2018-02-10T05:39:58.109Z,25.60
2018-02-10T05:42:25.854Z,26.17
2018-02-10T05:44:53.657Z,24.60
2018-02-10T05:47:22.329Z,25.13
2018-02-10T05:49:50.106Z,28.90
2018-02-10T05:52:18.158Z,28.80
2018-02-10T05:54:45.943Z,32.37
2018-02-10T05:57:13.905Z,31.83
2018-02-10T05:59:41.709Z,27.37
2018-02-10T06:02:10.218Z,26.10
2018-02-10T06:04:37.951Z,25.67
2018-02-10T06:07:06.502Z,25.10
2018-02-10T06:09:34.263Z,27.50
2018-02-10T06:12:02.341Z,28.10
2018-02-10T06:14:30.200Z,31.83
2018-02-10T06:16:57.937Z,29.83
2018-02-10T06:19:25.730Z,28.90
2018-02-10T06:21:53.565Z,30.43
2018-02-10T06:24:21.342Z,29.33
2018-02-10T06:26:49.312Z,30.27
2018-02-10T06:29:17.179Z,30.60
2018-02-10T06:31:45.043Z,30.70
2018-02-10T06:34:13.318Z,26.00
2018-02-10T06:36:41.287Z,28.50
2018-02-10T06:39:09.973Z,28.33
2018-02-10T06:41:37.699Z,26.73
2018-02-10T06:44:06.339Z,29.13
2018-02-10T06:46:34.205Z,26.47
2018-02-10T06:49:02.362Z,27.23
2018-02-10T06:51:30.100Z,26.03
2018-02-10T06:53:58.107Z,24.30
2018-02-10T06:56:26.084Z,27.10
2018-02-10T06:58:53.834Z,27.67
2018-02-10T07:01:21.614Z,25.80
2018-02-10T07:03:49.387Z,24.47
2018-02-10T07:06:17.222Z,26.13
2018-02-10T07:08:45.005Z,24.33
2018-02-10T07:11:12.864Z,24.97
2018-02-10T07:13:40.710Z,24.93
2018-02-10T07:16:08.500Z,26.30
2018-02-10T07:18:36.450Z,27.80
2018-02-10T07:21:04.229Z,26.13
2018-02-10T07:23:32.017Z,25.60
2018-02-10T07:26:00.706Z,26.43
2018-02-10T07:28:28.656Z,28.63
2018-02-10T07:30:56.927Z,30.50
2018-02-10T07:33:24.875Z,30.40
2018-02-10T07:35:52.685Z,28.00
2018-02-10T07:38:21.532Z,26.70
2018-02-10T07:40:49.393Z,29.30
2018-02-10T07:43:17.365Z,29.27
2018-02-10T07:45:45.161Z,28.90
2018-02-10T07:48:13.029Z,29.60
2018-02-10T07:50:40.823Z,32.40
2018-02-10T07:53:09.465Z,29.93
2018-02-10T07:55:37.434Z,30.77
2018-02-10T07:58:05.185Z,29.37
2018-02-10T08:00:33.352Z,27.20
2018-02-10T08:03:01.502Z,31.30
2018-02-10T08:05:29.311Z,37.90
2018-02-10T08:07:57.175Z,32.37
2018-02-10T08:10:25.655Z,31.97
2018-02-10T08:12:53.408Z,35.30
2018-02-10T08:15:21.371Z,29.83
2018-02-10T08:17:49.255Z,30.50
2018-02-10T08:20:17.029Z,32.13
2018-02-10T08:22:44.865Z,30.47
2018-02-10T08:25:12.741Z,28.80
2018-02-10T08:27:40.618Z,28.70
2018-02-10T08:30:08.991Z,27.90
2018-02-10T08:32:36.762Z,30.77
2018-02-10T08:35:04.711Z,28.57
2018-02-10T08:37:32.706Z,29.40
2018-02-10T08:40:00.710Z,25.70
2018-02-10T08:42:30.976Z,45.40
2018-02-10T08:44:58.942Z,33.73
2018-02-10T08:47:27.933Z,34.83
2018-02-10T08:49:56.002Z,33.37
2018-02-10T08:52:25.201Z,32.47
2018-02-10T08:54:53.278Z,33.57
2018-02-10T08:57:21.240Z,33.37
2018-02-10T08:59:49.214Z,33.03
2018-02-10T09:02:17.486Z,32.20
2018-02-10T09:04:45.482Z,31.90
2018-02-10T09:07:13.526Z,38.10
2018-02-10T09:09:42.260Z,33.83
2018-02-10T09:12:10.208Z,29.33
2018-02-10T09:14:39.223Z,31.77
2018-02-10T09:17:08.063Z,30.27
2018-02-10T09:19:35.934Z,68.47
2018-02-10T09:22:04.717Z,45.70
2018-02-10T09:24:33.037Z,31.63
2018-02-10T09:27:02.189Z,36.77
2018-02-10T09:29:30.159Z,33.70
2018-02-10T09:31:58.130Z,31.57
2018-02-10T09:34:26.107Z,35.77
2018-02-10T09:36:54.272Z,36.90
2018-02-10T09:39:22.558Z,35.90
2018-02-10T09:41:50.581Z,33.90
2018-02-10T09:44:18.586Z,32.20
2018-02-10T09:46:46.656Z,35.50
2018-02-10T09:49:14.633Z,37.10
2018-02-10T09:51:42.595Z,35.40
2018-02-10T09:54:10.715Z,37.67
2018-02-10T09:56:39.458Z,36.93
2018-02-10T09:59:07.513Z,34.30
2018-02-10T10:01:35.405Z,35.03
2018-02-10T10:04:03.362Z,36.00
2018-02-10T10:06:31.642Z,34.67
2018-02-10T10:08:59.533Z,35.73
2018-02-10T10:11:28.123Z,35.27
2018-02-10T10:13:57.082Z,34.57
2018-02-10T10:16:24.999Z,35.90
2018-02-10T10:18:54.245Z,35.63
2018-02-10T10:21:22.011Z,34.73
2018-02-10T10:23:49.752Z,30.70
2018-02-10T10:26:17.721Z,30.60
2018-02-10T10:28:45.742Z,33.07
2018-02-10T10:31:13.827Z,31.87
2018-02-10T10:33:42.776Z,34.27
2018-02-10T10:36:11.049Z,32.73
2018-02-10T10:38:38.842Z,28.70
2018-02-10T10:41:06.649Z,31.43
2018-02-10T10:43:34.410Z,31.63
2018-02-10T10:46:02.647Z,30.80
2018-02-10T10:48:30.412Z,30.93
2018-02-10T10:50:58.351Z,34.53
2018-02-10T10:53:26.246Z,31.20
2018-02-10T10:55:54.105Z,31.70
2018-02-10T10:58:21.883Z,31.40
2018-02-10T11:00:50.739Z,30.43
2018-02-10T11:03:18.758Z,28.03
2018-02-10T11:05:46.986Z,28.07
2018-02-10T11:08:14.856Z,28.93
2018-02-10T11:10:42.761Z,25.73
2018-02-10T11:13:10.609Z,28.00
2018-02-10T11:15:39.287Z,22.03
2018-02-10T11:18:07.173Z,22.60
2018-02-10T11:20:35.030Z,21.17
2018-02-10T11:23:03.119Z,19.67
2018-02-10T11:25:31.756Z,15.77
2018-02-10T11:27:59.643Z,11.67
2018-02-10T11:30:27.466Z,10.70
2018-02-10T11:32:55.376Z,9.40
2018-02-10T11:35:23.240Z,9.40
2018-02-10T11:37:51.198Z,8.80
2018-02-10T11:40:19.076Z,8.97
2018-02-10T11:42:46.932Z,8.03
2018-02-10T11:45:15.163Z,8.13
2018-02-10T11:47:43.799Z,9.50
2018-02-10T11:50:11.651Z,9.13
2018-02-10T11:52:39.853Z,7.47
2018-02-10T11:55:08.324Z,8.80
2018-02-10T11:57:36.172Z,8.20
2018-02-10T12:00:04.139Z,7.73
2018-02-10T12:02:31.927Z,9.00
2018-02-10T12:05:00.079Z,9.70
2018-02-10T12:07:27.955Z,9.57
2018-02-10T12:09:55.930Z,9.03
2018-02-10T12:12:23.694Z,8.70
2018-02-10T12:14:51.543Z,8.50
2018-02-10T12:17:19.320Z,9.20
2018-02-10T12:19:47.190Z,8.67
2018-02-10T12:22:14.964Z,9.90
2018-02-10T12:24:42.723Z,9.80
2018-02-10T12:27:10.596Z,10.67
2018-02-10T12:29:38.562Z,10.17
2018-02-10T12:32:06.432Z,10.50
2018-02-10T12:34:34.210Z,9.70
2018-02-10T12:37:02.940Z,9.87
2018-02-10T12:39:30.748Z,8.80
2018-02-10T12:41:58.818Z,8.60
2018-02-10T12:44:27.663Z,8.70
2018-02-10T12:46:55.681Z,9.50
2018-02-10T12:49:35.322Z,9.40
2018-02-10T12:52:04.598Z,9.83
2018-02-10T12:54:32.462Z,8.50
2018-02-10T12:57:00.403Z,8.77
2018-02-10T12:59:28.401Z,7.50
2018-02-10T13:01:56.177Z,10.07
2018-02-10T13:04:24.048Z,8.57
2018-02-10T13:06:53.350Z,8.27
2018-02-10T13:09:21.217Z,8.37
2018-02-10T13:11:48.981Z,8.40
2018-02-10T13:14:16.850Z,8.33
2018-02-10T13:16:54.822Z,7.93
2018-02-10T13:19:23.327Z,8.83
2018-02-10T13:21:51.191Z,8.30
2018-02-10T13:24:19.152Z,7.17
2018-02-10T13:26:47.009Z,7.13
2018-02-10T13:29:15.004Z,7.43
2018-02-10T13:31:42.864Z,8.20
2018-02-10T13:34:11.034Z,7.00
2018-02-10T13:36:39.006Z,7.20
2018-02-10T13:39:06.851Z,8.60
2018-02-10T13:41:35.221Z,8.67
2018-02-10T13:44:03.214Z,8.57
2018-02-10T13:46:31.272Z,7.80
2018-02-10T13:48:59.242Z,15.50
2018-02-10T13:51:27.133Z,19.10
2018-02-10T13:53:55.826Z,10.40
2018-02-10T13:56:24.576Z,9.77
2018-02-10T13:58:52.710Z,6.50
2018-02-10T14:01:21.257Z,8.93
2018-02-10T14:03:49.119Z,8.60
2018-02-10T14:06:16.972Z,9.17
2018-02-10T14:08:44.942Z,9.83
2018-02-10T14:11:13.247Z,8.67
2018-02-10T14:13:41.986Z,7.40
2018-02-10T14:16:09.786Z,7.73
2018-02-10T14:18:37.835Z,9.43
2018-02-10T14:21:05.625Z,8.40
2018-02-10T14:23:33.440Z,9.00
2018-02-10T14:26:01.542Z,7.93
2018-02-10T14:28:29.509Z,9.57
2018-02-10T14:30:57.396Z,9.53
2018-02-10T14:33:25.342Z,9.83
2018-02-10T14:35:53.419Z,9.63
2018-02-10T14:38:21.587Z,10.10
2018-02-10T14:40:49.371Z,10.80
2018-02-10T14:43:17.350Z,12.10
2018-02-10T14:45:45.111Z,9.80
2018-02-10T14:48:12.975Z,10.57
2018-02-10T14:50:41.021Z,10.83
2018-02-10T14:53:09.176Z,9.10
2018-02-10T14:55:36.976Z,7.73
2018-02-10T14:58:04.933Z,9.77
2018-02-10T15:00:32.999Z,8.23
2018-02-10T15:03:01.274Z,9.23
2018-02-10T15:05:29.140Z,15.03
2018-02-10T15:07:57.009Z,12.57
2018-02-10T15:10:24.987Z,11.20
2018-02-10T15:12:52.870Z,10.10
2018-02-10T15:15:20.811Z,10.60
2018-02-10T15:17:48.923Z,11.23
2018-02-10T15:20:17.281Z,10.00
2018-02-10T15:22:45.173Z,10.50
2018-02-10T15:25:13.920Z,11.03
2018-02-10T15:27:41.888Z,12.40
2018-02-10T15:30:21.758Z,11.10
2018-02-10T15:33:01.615Z,10.20
2018-02-10T15:35:29.507Z,9.67
2018-02-10T15:37:58.047Z,10.23
2018-02-10T15:40:25.928Z,12.07
2018-02-10T15:42:55.320Z,10.23
2018-02-10T15:45:23.467Z,11.20
2018-02-10T15:47:51.671Z,10.60
2018-02-10T15:50:20.109Z,12.77
2018-02-10T15:52:48.537Z,11.13
2018-02-10T15:55:16.866Z,12.43
2018-02-10T15:57:44.883Z,12.43
2018-02-10T16:00:12.922Z,12.87
2018-02-10T16:02:42.342Z,13.03
2018-02-10T16:05:10.190Z,12.80
2018-02-10T16:07:38.266Z,12.67
2018-02-10T16:10:06.355Z,13.53
2018-02-10T16:12:34.253Z,13.20
2018-02-10T16:15:03.024Z,13.07
2018-02-10T16:17:30.885Z,11.80
2018-02-10T16:19:58.920Z,12.13
2018-02-10T16:22:26.907Z,13.33
2018-02-10T16:24:54.879Z,12.50
2018-02-10T16:27:22.747Z,11.07
2018-02-10T16:29:51.305Z,14.33
2018-02-10T16:32:19.076Z,13.40
2018-02-10T16:34:47.040Z,12.73
2018-02-10T16:37:14.834Z,13.33
2018-02-10T16:39:42.910Z,13.10
2018-02-10T16:42:12.589Z,13.10
2018-02-10T16:44:40.585Z,12.80
2018-02-10T16:47:08.543Z,13.03
2018-02-10T16:49:36.434Z,14.33
2018-02-10T16:52:05.187Z,13.43
2018-02-10T16:54:33.100Z,12.90
2018-02-10T16:57:01.121Z,13.40
2018-02-10T16:59:28.930Z,13.60
2018-02-10T17:01:57.668Z,15.27
2018-02-10T17:04:26.086Z,15.23
2018-02-10T17:06:54.018Z,22.00
2018-02-10T17:09:22.906Z,19.50
2018-02-10T17:11:52.011Z,16.83
2018-02-10T17:14:20.022Z,15.20
2018-02-10T17:16:48.974Z,16.23
2018-02-10T17:19:17.330Z,15.97
2018-02-10T17:21:45.834Z,17.13
2018-02-10T17:24:14.671Z,17.30
2018-02-10T17:26:43.505Z,15.27
2018-02-10T17:29:11.465Z,15.30
2018-02-10T17:31:39.537Z,16.20
2018-02-10T17:34:07.643Z,17.27
2018-02-10T17:36:35.718Z,26.07
2018-02-10T17:39:05.291Z,19.50
2018-02-10T17:41:33.365Z,18.60
2018-02-10T17:44:01.386Z,15.50
2018-02-10T17:46:30.243Z,15.73
2018-02-10T17:49:00.422Z,17.60
2018-02-10T17:51:28.413Z,15.33
2018-02-10T17:53:57.027Z,16.00
2018-02-10T17:56:24.888Z,17.60
2018-02-10T17:58:52.770Z,18.80
2018-02-10T18:01:22.138Z,15.90
2018-02-10T18:03:50.099Z,16.70
2018-02-10T18:06:18.101Z,15.87
2018-02-10T18:08:46.751Z,16.20
2018-02-10T18:11:15.759Z,16.07
2018-02-10T18:13:44.430Z,14.67
2018-02-10T18:16:12.596Z,14.47
2018-02-10T18:18:40.573Z,16.57
2018-02-10T18:21:08.615Z,15.70
2018-02-10T18:23:36.407Z,16.17
2018-02-10T18:26:04.209Z,14.17
2018-02-10T18:28:33.475Z,16.13
2018-02-10T18:31:01.542Z,17.40
2018-02-10T18:33:29.306Z,16.37
2018-02-10T18:35:57.193Z,15.60
2018-02-10T18:38:25.349Z,15.87
2018-02-10T18:40:53.419Z,16.17
2018-02-10T18:43:21.420Z,15.00
2018-02-10T18:45:49.382Z,15.93
2018-02-10T18:48:17.327Z,14.13
2018-02-10T18:50:45.293Z,10.87
2018-02-10T18:53:13.379Z,10.57
2018-02-10T18:55:41.247Z,10.10
2018-02-10T18:58:09.309Z,12.30
2018-02-10T19:00:37.090Z,9.43
2018-02-10T19:03:05.571Z,8.73
2018-02-10T19:05:33.511Z,8.67
2018-02-10T19:08:01.569Z,7.83
2018-02-10T19:10:29.621Z,8.53
2018-02-10T19:12:58.349Z,8.10
2018-02-10T19:15:26.308Z,8.30
2018-02-10T19:17:54.184Z,8.53
2018-02-10T19:20:22.487Z,7.93
2018-02-10T19:22:50.424Z,7.83
2018-02-10T19:25:18.419Z,9.23
2018-02-10T19:27:46.623Z,7.27
2018-02-10T19:30:15.591Z,7.60
2018-02-10T19:32:44.565Z,7.00
2018-02-10T19:35:12.649Z,7.60
2018-02-10T19:37:41.750Z,7.47
2018-02-10T19:40:09.703Z,7.30
2018-02-10T19:42:38.018Z,8.30
2018-02-10T19:45:06.956Z,8.47
2018-02-10T19:47:35.537Z,7.90
2018-02-10T19:50:03.609Z,7.87
2018-02-10T19:52:31.924Z,8.37
2018-02-10T19:54:59.903Z,7.73
2018-02-10T19:57:28.749Z,8.37
2018-02-10T19:59:56.923Z,8.53
2018-02-10T20:02:24.923Z,8.60
2018-02-10T20:04:54.204Z,7.90
2018-02-10T20:07:22.497Z,7.70
2018-02-10T20:09:50.744Z,7.83
2018-02-10T20:12:18.709Z,8.20
2018-02-10T20:14:46.627Z,8.37
2018-02-10T20:17:15.565Z,8.67
2018-02-10T20:19:43.646Z,9.37
2018-02-10T20:22:11.799Z,8.90
2018-02-10T20:24:40.145Z,9.20
2018-02-10T20:27:09.092Z,10.03
2018-02-10T20:29:36.963Z,9.20
2018-02-10T20:32:04.919Z,10.17
2018-02-10T20:34:32.911Z,9.97
2018-02-10T20:37:00.966Z,9.60
2018-02-10T20:39:28.926Z,10.20
2018-02-10T20:41:57.026Z,11.77
2018-02-10T20:44:25.604Z,9.90
2018-02-10T20:46:53.482Z,9.27
2018-02-10T20:49:21.626Z,9.57
2018-02-10T20:51:49.866Z,9.77
2018-02-10T20:54:17.769Z,18.20
2018-02-10T20:56:46.459Z,12.60
2018-02-10T20:59:14.453Z,11.47
2018-02-10T21:01:42.581Z,9.60
2018-02-10T21:04:10.662Z,8.90
2018-02-10T21:06:38.553Z,12.20
2018-02-10T21:09:06.662Z,12.00
2018-02-10T21:11:35.348Z,12.27
2018-02-10T21:14:04.328Z,11.60
2018-02-10T21:16:32.249Z,12.70
2018-02-10T21:19:00.362Z,11.80
2018-02-10T21:21:28.599Z,11.57
2018-02-10T21:23:56.683Z,11.50
2018-02-10T21:26:24.941Z,13.03
2018-02-10T21:28:53.254Z,12.83
2018-02-10T21:31:21.410Z,12.10
2018-02-10T21:33:49.467Z,12.80
2018-02-10T21:36:17.660Z,11.93
2018-02-10T21:38:45.760Z,11.63
2018-02-10T21:41:14.796Z,11.13
2018-02-10T21:43:42.766Z,11.20
2018-02-10T21:46:10.850Z,13.37
2018-02-10T21:48:39.119Z,13.50
2018-02-10T21:51:07.109Z,14.03
2018-02-10T21:53:35.285Z,14.80
2018-02-10T21:56:03.951Z,15.57
2018-02-10T21:58:32.733Z,16.70
2018-02-10T22:01:00.736Z,15.63
2018-02-10T22:03:28.773Z,16.27
2018-02-10T22:05:56.696Z,15.30
2018-02-10T22:08:25.449Z,15.43
2018-02-10T22:10:53.428Z,14.73
2018-02-10T22:13:21.432Z,15.27
2018-02-10T22:15:49.252Z,15.27
2018-02-10T22:18:17.219Z,15.73
2018-02-10T22:20:45.171Z,15.57
2018-02-10T22:23:13.048Z,15.67
2018-02-10T22:25:40.943Z,14.57
2018-02-10T22:28:08.972Z,15.17
2018-02-10T22:30:36.951Z,18.33
2018-02-10T22:33:04.838Z,16.90
2018-02-10T22:35:32.704Z,16.00
2018-02-10T22:38:00.689Z,17.10
2018-02-10T22:40:28.610Z,15.93
2018-02-10T22:42:56.683Z,16.77
2018-02-10T22:45:24.573Z,14.80
2018-02-10T22:47:52.331Z,16.07
2018-02-10T22:50:20.398Z,16.87
2018-02-10T22:52:48.375Z,19.17
2018-02-10T22:55:16.424Z,18.60
2018-02-10T22:57:44.523Z,18.23
2018-02-10T23:00:12.590Z,18.43
2018-02-10T23:02:40.355Z,18.60
2018-02-10T23:05:08.326Z,16.03
2018-02-10T23:07:36.185Z,16.10
2018-02-10T23:10:05.483Z,16.33
2018-02-10T23:12:33.433Z,17.70
2018-02-10T23:15:01.377Z,15.90
2018-02-10T23:17:29.367Z,17.80
2018-02-10T23:19:57.158Z,15.17
2018-02-10T23:22:24.949Z,13.57
2018-02-10T23:24:53.484Z,15.23
2018-02-10T23:27:21.351Z,14.47
2018-02-10T23:29:49.336Z,14.50
2018-02-10T23:32:17.289Z,15.50
2018-02-10T23:34:45.155Z,14.13
2018-02-10T23:37:13.018Z,15.27
2018-02-10T23:39:40.800Z,13.70
2018-02-10T23:42:08.570Z,14.80
2018-02-10T23:44:36.345Z,13.70
2018-02-10T23:47:04.096Z,14.53
2018-02-10T23:49:31.960Z,13.60
2018-02-10T23:51:59.705Z,12.37
2018-02-10T23:54:27.491Z,13.60
2018-02-10T23:56:55.461Z,13.20
2018-02-10T23:59:23.231Z,13.10
